• Join FlightAware (Why Join?)
  • Login
  • US Flag 
01:13AM EDT


 

Airport Tracker/Info


-or-


 

Live Flight TrackerFlight Track Log ✈ N662US ✈ 04-Jun-2013 ✈ RJAA / NRT - ZSPD / PVG

Flight Track Log - Related Links

Times and Time Zones

All times are in EDT time to prevent confusion due to time zone crossing. See the N662US flight status page for this flight to view local times or setup timezone preferences in your user account.

Time Position Orientation Groundspeed Altitude Reporting Facility
EDT Latitude Longitude Course Direction KTS MPH feet Rate Location/Type
06:45AM 35.7448 140.2636 259° West  Level Estimated
06:46AM 35.7247 140.1408 259° West  Level Estimated
06:47AM 35.7045 140.0181 259° West  Level Estimated
06:48AM 35.6841 139.8954 258° West  Level Estimated
06:49AM 35.6637 139.7729 258° West  Level Estimated
06:50AM 35.6431 139.6503 258° West  Level Estimated
06:51AM 35.6224 139.5279 258° West  Level Estimated
06:52AM 35.6016 139.4055 258° West  Level Estimated
06:53AM 35.5806 139.2832 258° West  Level Estimated
06:54AM 35.5595 139.1609 258° West  Level Estimated
06:54AM 35.7440 140.3900 258° West 168 193 600  Level FlightAware
06:54AM 35.7370 140.3960 145° Southeast 171 197 900 1,800 Climbing FlightAware
06:54AM 35.7160 140.4100 152° Southeast 181 208 1,800 1,860 Climbing FlightAware
06:54AM 35.7070 140.4170 148° Southeast 183 211 2,300 2,220 Climbing FlightAware
06:55AM 35.6820 140.4340 151° Southeast 189 217 3,500 1,800 Climbing FlightAware
06:55AM 35.6570 140.4530 148° Southeast 233 268 4,100 1,200 Climbing FlightAware
06:56AM 35.6350 140.4690 149° Southeast 259 298 4,600 2,160 Climbing FlightAware
06:56AM 35.6050 140.4910 149° Southeast 273 314 5,900 3,000 Climbing FlightAware
06:57AM 35.5710 140.5150 150° Southeast 284 327 7,400 2,760 Climbing FlightAware
06:57AM 35.5580 140.5240 151° Southeast 287 330 8,000 2,640 Climbing FlightAware
06:58AM 35.5040 140.5240 180° South 296 341 9,900 2,400 Climbing FlightAware
06:58AM 35.4820 140.4810 238° Southwest 314 361 10,800 1,740 Climbing FlightAware
06:59AM 35.4900 140.4320 281° West 343 395 11,500 1,560 Climbing FlightAware
06:59AM 35.5130 140.4050 316° Northwest 362 417 12,000 1,800 Climbing FlightAware
07:00AM 35.5780 140.3710 337° Northwest 404 465 13,300 2,580 Climbing FlightAware
07:00AM 35.6470 140.3370 338° Northwest 417 480 15,600 3,240 Climbing FlightAware
07:01AM 35.7280 140.2920 336° Northwest 429 494 17,900 2,580 Climbing FlightAware
07:01AM 35.7440 140.2770 323° Northwest 431 496 17,900 2,400 Level FlightAware
07:01AM 35.7610 140.2500 308° West 429 494 18,900 3,600 Climbing FlightAware
07:02AM 35.7730 140.2140 292° West 431 496 19,700 2,700 Climbing FlightAware
07:02AM 35.7760 140.1770 276° West 434 499 20,300 2,220 Climbing FlightAware
07:03AM 35.7720 140.0380 268° West 442 509 22,300 2,400 Climbing FlightAware
07:04AM 35.7380 139.9480 245° Southwest 447 514 24,100 2,520 Climbing FlightAware
07:04AM 35.6980 139.8420 245° Southwest 449 517 25,900 2,100 Climbing FlightAware
07:05AM 35.6870 139.7470 262° West 456 525 27,100 1,860 Climbing FlightAware
07:06AM 35.6800 139.6370 266° West 464 534 28,400 1,680 Climbing FlightAware
07:06AM 35.6750 139.5310 267° West 473 544 29,500 2,040 Climbing FlightAware
07:07AM 35.6690 139.4010 267° West 467 537 31,500 2,460 Climbing FlightAware
07:08AM 35.6630 139.2930 266° West 461 531 33,000 2,160 Climbing FlightAware
07:08AM 35.6580 139.1920 267° West 451 519 34,400 2,040 Climbing FlightAware
07:09AM 35.6530 139.0910 267° West 443 510 35,800 1,860 Climbing FlightAware
07:10AM 35.6470 138.9770 266° West 433 498 37,100 1,560 Climbing FlightAware
07:10AM 35.6420 138.8850 266° West 425 489 38,000 600 Climbing FlightAware
07:11AM 35.6360 138.7720 266° West 422 486 38,000  Level FlightAware
07:13AM 35.6250 138.5700 266° West 417 480 38,000  Level FlightAware
07:13AM 35.6190 138.4690 266° West 416 479 38,000  Level FlightAware
07:14AM 35.6130 138.3740 266° West 417 480 38,000  Level FlightAware
07:15AM 35.6080 138.2800 266° West 418 481 38,000  Level FlightAware
07:15AM 35.5970 138.1930 261° West 418 481 38,000  Level FlightAware
07:16AM 35.5770 138.0820 258° West 417 480 38,000  Level FlightAware
07:17AM 35.5610 137.9800 259° West 416 479 38,000  Level FlightAware
07:18AM 35.5470 137.8830 260° West 416 479 38,000  Level FlightAware
07:18AM 35.5310 137.7790 259° West 415 478 38,000  Level FlightAware
07:19AM 35.5160 137.6880 259° West 416 479 38,000  Level FlightAware
07:20AM 35.5020 137.6000 259° West 416 479 38,000  Level FlightAware
07:20AM 35.4860 137.4980 259° West 417 480 38,000  Level FlightAware
07:21AM 35.4710 137.4060 259° West 418 481 38,000  Level FlightAware
07:22AM 35.4540 137.3010 259° West 419 482 38,000  Level FlightAware
07:22AM 35.4430 137.2290 259° West 420 483 38,000  Level FlightAware
07:23AM 35.4220 137.1020 259° West 420 483 38,000  Level FlightAware
07:24AM 35.4070 137.0090 259° West 420 483 38,000  Level FlightAware
07:25AM 35.3920 136.9210 258° West 421 484 38,000  Level FlightAware
07:26AM 35.3670 136.7760 258° West 420 483 38,000  Level FlightAware
07:26AM 35.3520 136.6880 258° West 420 483 38,000  Level FlightAware
07:27AM 35.3350 136.5880 258° West 419 482 38,000  Level FlightAware
07:28AM 35.3190 136.4950 258° West 419 482 38,000  Level FlightAware
07:28AM 35.3000 136.3890 258° West 418 481 38,000  Level FlightAware
07:29AM 35.2860 136.3050 258° West 417 480 38,000  Level FlightAware
07:30AM 35.2660 136.1920 258° West 416 479 38,000  Level FlightAware
07:30AM 35.2500 136.1010 258° West 416 479 38,000  Level FlightAware
07:31AM 35.2330 136.0060 258° West 416 479 38,000  Level FlightAware
07:32AM 35.2160 135.9140 257° West 416 479 38,000  Level FlightAware
07:32AM 35.2000 135.8220 258° West 415 478 38,000  Level FlightAware
07:33AM 35.1810 135.7170 258° West 416 479 38,000  Level FlightAware
07:34AM 35.1640 135.6180 258° West 416 479 38,000  Level FlightAware
07:35AM 35.1460 135.5220 257° West 415 478 38,000  Level FlightAware
07:35AM 35.1310 135.4400 257° West 415 478 38,000  Level FlightAware
07:36AM 35.1110 135.3330 257° West 414 476 38,000  Level FlightAware
07:37AM 35.0910 135.2260 257° West 414 476 38,000  Level FlightAware
07:37AM 35.0750 135.1400 257° West 413 475 38,000  Level FlightAware
07:38AM 35.0580 135.0470 257° West 412 474 38,000  Level FlightAware
07:39AM 35.0410 134.9540 257° West 411 473 38,000  Level FlightAware
07:39AM 35.0250 134.8680 257° West 410 472 38,000  Level FlightAware
07:40AM 35.0080 134.7810 257° West 408 470 38,000  Level FlightAware
07:41AM 34.9860 134.6620 257° West 408 470 38,000  Level FlightAware
07:42AM 34.9720 134.5930 256° West 406 467 38,000  Level FlightAware
07:42AM 34.9520 134.4910 257° West 405 466 38,000  Level FlightAware
07:43AM 34.9340 134.4020 256° West 406 467 38,000  Level FlightAware
07:44AM 34.9130 134.2940 257° West 404 465 38,000  Level FlightAware
07:44AM 34.8950 134.2030 256° West 403 464 38,000  Level FlightAware
07:45AM 34.8690 134.0730 256° West 400 460 38,000  Level FlightAware
07:46AM 34.8510 133.9860 256° West 399 459 38,000  Level FlightAware
07:47AM 34.8310 133.8880 256° West 398 458 38,000  Level FlightAware
07:47AM 34.8140 133.8060 256° West 397 457 38,000  Level FlightAware
07:48AM 34.7960 133.7190 256° West 395 455 38,000  Level FlightAware
07:49AM 34.7740 133.6180 255° West 394 453 38,000  Level FlightAware
07:50AM 34.7560 133.5330 256° West 394 453 38,000  Level FlightAware
07:50AM 34.7360 133.4360 256° West 393 452 38,000  Level FlightAware
07:51AM 34.7170 133.3510 255° West 392 451 38,000  Level FlightAware
07:52AM 34.6960 133.2670 253° West 391 450 38,000  Level FlightAware
07:52AM 34.6660 133.1860 246° West 388 447 38,000  Level FlightAware
07:53AM 34.6350 133.0970 247° West 387 445 38,000  Level FlightAware
07:54AM 34.5990 132.9870 248° West 381 438 38,000  Level FlightAware
07:55AM 34.5720 132.9070 248° West 384 442 38,000  Level FlightAware
07:55AM 34.5460 132.8270 248° West 386 444 38,000  Level FlightAware
07:56AM 34.5150 132.7370 247° West 387 445 38,000  Level FlightAware
07:57AM 34.4850 132.6460 248° West 390 449 38,000  Level FlightAware
07:57AM 34.4630 132.5830 247° West 390 449 38,000  Level FlightAware
07:58AM 34.4360 132.5040 248° West 391 450 38,000  Level FlightAware
07:59AM 34.4040 132.4110 247° West 390 449 38,000  Level FlightAware
07:59AM 34.3760 132.3320 247° West 392 451 38,000  Level FlightAware
08:00AM 34.3340 132.2120 247° West 395 455 38,000  Level FlightAware
08:01AM 34.3020 132.1180 248° West 395 455 38,000  Level FlightAware
08:02AM 34.2730 132.0390 246° West 395 455 38,000  Level FlightAware
08:03AM 34.2410 131.9470 247° West 395 455 38,000  Level FlightAware
08:03AM 34.2120 131.8660 247° West 397 457 38,000  Level FlightAware
08:04AM 34.1800 131.7740 247° West 398 458 38,000  Level FlightAware
08:05AM 34.1420 131.6700 246° West 396 456 38,000  Level FlightAware
08:05AM 34.1120 131.5850 247° West 388 447 38,000  Level FlightAware
08:06AM 34.0800 131.4960 247° West 384 442 38,000  Level FlightAware
08:07AM 34.0480 131.4060 247° West 383 441 38,000  Level FlightAware
08:08AM 34.0200 131.3280 247° West 382 440 38,000  Level FlightAware
08:08AM 33.9880 131.2390 247° West 380 437 38,000  Level FlightAware
08:09AM 33.9600 131.1630 246° West 379 436 38,000  Level FlightAware
08:10AM 33.9270 131.0730 246° West 378 435 38,000  Level FlightAware
08:10AM 33.9030 131.0070 246° West 378 435 38,000  Level FlightAware
08:11AM 33.8680 130.9120 246° West 379 436 38,000  Level FlightAware
08:12AM 33.8570 130.8810 247° West 379 436 38,000  Level FlightAware
08:13AM 33.8100 130.7520 246° West 380 437 38,000  Level FlightAware
08:13AM 33.7730 130.6520 246° West 384 442 38,000  Level FlightAware
08:14AM 33.7390 130.5600 246° West 385 443 38,000  Level FlightAware
08:15AM 33.7120 130.4860 246° West 387 445 38,000  Level FlightAware
08:15AM 33.6820 130.4070 245° Southwest 389 448 38,000  Level FlightAware
08:16AM 33.6280 130.3140 235° Southwest 397 457 38,000  Level FlightAware
08:17AM 33.5910 130.2560 233° Southwest 397 457 38,000  Level FlightAware
08:18AM 33.5400 130.1750 233° Southwest 396 456 38,000  Level FlightAware
08:18AM 33.4970 130.1080 232° Southwest 393 452 38,000  Level FlightAware
08:19AM 33.4530 130.0220 239° Southwest 386 444 38,000  Level FlightAware
08:20AM 33.4170 129.9170 248° West 384 442 38,000  Level FlightAware
08:21AM 33.3940 129.8360 251° West 381 438 38,000  Level FlightAware
08:22AM 33.3580 129.7170 250° West 381 438 38,000  Level FlightAware
08:22AM 33.3380 129.6470 251° West 382 440 38,000  Level FlightAware
08:23AM 33.3110 129.5580 250° West 382 440 38,000  Level FlightAware
08:24AM 33.2840 129.4700 250° West 382 440 38,000  Level FlightAware
08:24AM 33.2560 129.3790 250° West 385 443 38,000  Level FlightAware
08:25AM 33.2340 129.3060 250° West 384 442 38,000  Level FlightAware
08:26AM 33.2120 129.2320 250° West 386 444 38,000  Level FlightAware
08:27AM 33.1960 129.1790 250° West 386 444 38,000  Level FlightAware
08:28AM 33.1720 129.0980 251° West 386 444 38,000  Level FlightAware
08:28AM 33.1530 129.0370 250° West 386 444 38,000  Level FlightAware
08:29AM 33.1270 128.9520 250° West 386 444 38,000  Level FlightAware
08:30AM 33.1080 128.8890 250° West 386 444 38,000  Level FlightAware
08:30AM 33.0860 128.8170 250° West 386 444 38,000  Level FlightAware
08:31AM 33.0620 128.7390 250° West 386 444 38,000  Level FlightAware
08:32AM 33.0430 128.6760 250° West 386 444 38,000  Level FlightAware
08:32AM 33.0240 128.6130 250° West 386 444 38,000  Level FlightAware
08:33AM 32.9980 128.5280 250° West 386 444 38,000  Level FlightAware
08:34AM 32.9790 128.4670 250° West 386 444 38,000  Level FlightAware
08:34AM 32.9540 128.3850 250° West 386 444 38,000  Level FlightAware
08:35AM 32.9340 128.3190 250° West 386 444 38,000  Level FlightAware
08:36AM 32.9020 128.2150 250° West 386 444 38,000 -660 Level FlightAware
08:39AM 32.8334 127.9349 254° West  Level Estimated
08:40AM 32.8040 127.8158 254° West  Level Estimated
08:41AM 32.7745 127.6969 254° West  Level Estimated
08:42AM 32.7451 127.5787 254° West  Level Estimated
08:43AM 32.7156 127.4607 253° West  Level Estimated
08:44AM 32.6859 127.3427 253° West  Level Estimated
08:45AM 32.6562 127.2248 253° West  Level Estimated
08:46AM 32.6263 127.1069 253° West  Level Estimated
08:47AM 32.5963 126.9892 253° West  Level Estimated
08:48AM 32.5663 126.8715 253° West  Level Estimated
08:49AM 32.5361 126.7539 253° West  Level Estimated
08:50AM 32.5058 126.6364 253° West  Level Estimated
08:51AM 32.4754 126.5190 253° West  Level Estimated
08:52AM 32.4448 126.4016 253° West  Level Estimated
08:53AM 32.4142 126.2844 253° West  Level Estimated
08:54AM 32.3835 126.1672 253° West  Level Estimated
08:55AM 32.3526 126.0501 253° West  Level Estimated
08:56AM 32.3217 125.9330 253° West  Level Estimated
08:57AM 32.2906 125.8161 253° West  Level Estimated
08:58AM 32.2595 125.6992 253° West  Level Estimated
08:59AM 32.2282 125.5824 252° West  Level Estimated
09:00AM 32.1968 125.4657 252° West  Level Estimated
09:01AM 32.1653 125.3491 252° West  Level Estimated
09:02AM 32.1337 125.2325 252° West  Level Estimated
09:03AM 32.1020 125.1161 252° West  Level Estimated
09:04AM 32.0702 124.9997 252° West  Level Estimated
09:05AM 32.0383 124.8834 252° West  Level Estimated
09:06AM 32.0063 124.7671 252° West  Level Estimated
09:07AM 31.9742 124.6510 252° West  Level Estimated
09:08AM 31.9419 124.5349 252° West  Level Estimated
09:09AM 31.9096 124.4190 252° West  Level Estimated
09:10AM 31.8772 124.3030 252° West  Level Estimated
09:11AM 31.8446 124.1872 252° West  Level Estimated
09:12AM 31.8120 124.0715 252° West  Level Estimated
09:13AM 31.7792 123.9558 252° West  Level Estimated
09:14AM 31.7463 123.8403 252° West  Level Estimated
09:15AM 31.7134 123.7248 251° West  Level Estimated
09:16AM 31.6803 123.6094 251° West  Level Estimated
09:17AM 31.6471 123.4940 251° West  Level Estimated
09:18AM 31.6138 123.3788 251° West  Level Estimated
09:19AM 31.5805 123.2636 251° West  Level Estimated
09:20AM 31.5470 123.1486 251° West  Level Estimated
09:21AM 31.5134 123.0335 251° West  Level Estimated
09:22AM 31.4797 122.9186 251° West  Level Estimated
09:23AM 31.4459 122.8038 251° West  Level Estimated
09:24AM 31.4120 122.6891 251° West  Level Estimated
09:25AM 31.3780 122.5744 251° West  Level Estimated
09:26AM 31.3439 122.4598 251° West  Level Estimated
09:27AM 31.3097 122.3453 251° West  Level Estimated
09:28AM 31.2754 122.2309 251° West  Level Estimated
09:29AM 31.2410 122.1166 251° West  Level Estimated
09:30AM 31.2065 122.0023 251° West  Level Estimated
09:30AM 31.3890 121.8140 251° West 203 234 2,900  Level FlightAware
09:30AM 31.3970 121.8110 342° North 191 220 2,800 -1,260 Descending FlightAware
09:31AM 31.1719 121.8881 251° West  Level Estimated
09:31AM 31.4240 121.8010 342° North 192 221 2,100  Level FlightAware
09:31AM 31.4380 121.7860 318° Northwest 202 232 2,000 -240 Descending FlightAware
09:31AM 31.4400 121.7750 282° West 197 227 2,000  Level FlightAware
09:32AM 31.4370 121.7460 263° West 193 222 2,000  Level FlightAware
09:32AM 31.4310 121.7390 225° Southwest 174 200 2,000  Level FlightAware
09:32AM 31.4200 121.7330 205° Southwest 170 196 2,000  Level FlightAware
09:33AM 31.3950 121.7250 195° South 165 190 2,000  Level FlightAware
09:33AM 31.3780 121.7220 189° South 165 190 2,000  Level FlightAware
09:34AM 31.3200 121.7510 157° South 173 199 2,000  Level FlightAware
09:35AM 31.3000 121.7580 163° South 173 199 2,000 -120 Level FlightAware
09:35AM 31.2680 121.7710 161° South 171 197 1,900 -300 Descending FlightAware
09:36AM 31.2450 121.7790 163° South 173 199 1,700 -540 Descending FlightAware
09:36AM 31.2280 121.7860 161° South 153 176 1,400 -720 Descending FlightAware
09:37AM 31.2220 121.7880 164° South 155 178 1,300 -180 Descending FlightAware
09:37AM 31.2050 121.7940 163° South 155 178 1,300 -780 Level FlightAware
09:38AM 31.1750 121.8060 161° South 138 159 400 -1,260 Descending FlightAware